Terminal Aerodrome Forecast
Issued by NWS Albuquerque, NM

Home | Current Version | Previous Version | Text Only | Print | Product List | Glossary On
Versions: 1 2 3 4 5 6 7 8 9 10 11 12 13 14 15 16 17
000
FTUS45 KABQ 272300
TAFABQ
TAF
KABQ 272324Z 2800/2824 31008KT P6SM FEW070 SCT110
     FM280500 VRB04KT P6SM SKC
     FM282000 32008KT P6SM FEW070=

USA.gov is the U.S. government's official web portal to all federal, state and local government web resources and services.